Terminal Aerodrome Forecast
Issued by NWS Mt. Holly, NJ

Home | Current Version | Previous Version | Text Only | Print | Product List | Glossary On
Versions: 1 2 3 4 5 6 7 8 9 10 11 12 13 14 15 16 17 18 19 20
000
FTUS41 KPHI 302340 AAB
TAFABE
TAF AMD
KABE 302340Z 0100/0124 10010KT P6SM OVC035
     FM010200 10010KT P6SM OVC010
     FM010600 10006KT 4SM BR OVC008
     FM010800 VRB03KT 1/2SM FG OVC003
     FM011200 VRB03KT 1 1/2SM BR OVC003
     FM011400 19007KT P6SM BKN020
     FM011900 19011G20KT P6SM BKN030 PROB30 0122/0123 4SM -TSRA
      OVC015CB=

USA.gov is the U.S. government's official web portal to all federal, state and local government web resources and services.